EWG3LP EDDL-GMAD
Flight info
| Callsign | EWG3LP |
|---|---|
| Flight time | N/A |
| Altitude | 35000 |
| Route | MODRU2T MODRU Z717 MAS UM617 CIV N872 MEDIL DCT KOVIN DCT DUCRA UM728 RESMI UN857 DISAK DCT ARKIP DCT ARNAV DCT LMG DCT UVELI DCT OSMOB DCT VAVIX DCT NETUK N857 BAN N10 CJN L27 BLN N869 GALTO UN869 MABAP UR722 MAK UG850 OLOMA |
| Aircraft | A320/M-SDE3FGHIRWY/LB1 |
Departure
| Time | N/A |
|---|---|
| Airport | Düsseldorf Airport (EDDL) |
Arrival
| Time | 2026-04-19 22:47 |
|---|---|
| Airport | Al Massira Airport (GMAD) |
| Time | Latitude | Longitude | Altitude | Speed | Heading |
|---|---|---|---|---|---|
| 2026-04-19 22:12 | 31.56019 | -8.15667 | 32973 ft | 403 kts | 219° |
| 2026-04-19 22:13 | 31.53882 | -8.17810 | 32445 ft | 400 kts | 220° |
| 2026-04-19 22:13 | 31.51769 | -8.19935 | 31912 ft | 398 kts | 220° |
| 2026-04-19 22:13 | 31.49689 | -8.22021 | 31391 ft | 396 kts | 220° |
| 2026-04-19 22:13 | 31.47592 | -8.24123 | 30920 ft | 393 kts | 220° |
| 2026-04-19 22:14 | 31.45517 | -8.26203 | 30440 ft | 391 kts | 220° |
| 2026-04-19 22:14 | 31.43451 | -8.28277 | 29945 ft | 388 kts | 220° |
| 2026-04-19 22:14 | 31.41434 | -8.30304 | 29405 ft | 385 kts | 220° |
| 2026-04-19 22:14 | 31.39403 | -8.32344 | 28870 ft | 382 kts | 220° |
| 2026-04-19 22:15 | 31.37394 | -8.34361 | 28371 ft | 379 kts | 220° |
| 2026-04-19 22:15 | 31.35404 | -8.36357 | 27973 ft | 373 kts | 220° |
| 2026-04-19 22:15 | 31.33447 | -8.38321 | 27530 ft | 369 kts | 220° |
| 2026-04-19 22:15 | 31.31498 | -8.40276 | 27036 ft | 366 kts | 220° |
| 2026-04-19 22:16 | 31.29591 | -8.42185 | 26546 ft | 364 kts | 220° |
| 2026-04-19 22:16 | 31.27664 | -8.44112 | 26059 ft | 362 kts | 220° |
| 2026-04-19 22:16 | 31.25753 | -8.46022 | 25582 ft | 360 kts | 220° |
| 2026-04-19 22:16 | 31.23849 | -8.47928 | 25131 ft | 358 kts | 220° |
| 2026-04-19 22:17 | 31.21981 | -8.49800 | 24665 ft | 357 kts | 221° |
| 2026-04-19 22:17 | 31.20097 | -8.51695 | 24214 ft | 355 kts | 221° |
| 2026-04-19 22:17 | 31.18223 | -8.53581 | 23771 ft | 354 kts | 221° |
| 2026-04-19 22:17 | 31.16357 | -8.55459 | 23271 ft | 352 kts | 221° |
| 2026-04-19 22:18 | 31.14531 | -8.57294 | 22780 ft | 350 kts | 221° |
| 2026-04-19 22:18 | 31.12679 | -8.59153 | 22317 ft | 348 kts | 221° |
| 2026-04-19 22:18 | 31.10844 | -8.60993 | 21880 ft | 346 kts | 221° |
| 2026-04-19 22:18 | 31.09026 | -8.62816 | 21444 ft | 344 kts | 221° |
| 2026-04-19 22:19 | 31.07235 | -8.64610 | 21021 ft | 342 kts | 221° |
| 2026-04-19 22:19 | 31.05427 | -8.66419 | 20585 ft | 340 kts | 220° |
| 2026-04-19 22:19 | 31.03636 | -8.68211 | 20169 ft | 338 kts | 221° |
| 2026-04-19 22:19 | 31.01852 | -8.69994 | 19757 ft | 336 kts | 220° |
| 2026-04-19 22:20 | 31.00097 | -8.71747 | 19347 ft | 335 kts | 220° |
| 2026-04-19 22:20 | 30.98338 | -8.73506 | 19002 ft | 330 kts | 220° |
| 2026-04-19 22:20 | 30.96599 | -8.75246 | 18643 ft | 328 kts | 220° |
| 2026-04-19 22:20 | 30.94869 | -8.76977 | 18277 ft | 326 kts | 220° |
| 2026-04-19 22:21 | 30.93153 | -8.78692 | 17846 ft | 325 kts | 220° |
| 2026-04-19 22:21 | 30.91458 | -8.80383 | 17455 ft | 323 kts | 220° |
| 2026-04-19 22:21 | 30.89752 | -8.82084 | 17060 ft | 321 kts | 220° |
| 2026-04-19 22:21 | 30.88043 | -8.83777 | 16643 ft | 320 kts | 220° |
| 2026-04-19 22:22 | 30.86344 | -8.85444 | 16300 ft | 318 kts | 220° |
| 2026-04-19 22:22 | 30.84651 | -8.87100 | 15959 ft | 316 kts | 220° |
| 2026-04-19 22:22 | 30.82990 | -8.88724 | 15603 ft | 315 kts | 220° |
| 2026-04-19 22:22 | 30.81316 | -8.90361 | 15243 ft | 314 kts | 220° |
| 2026-04-19 22:23 | 30.79648 | -8.91989 | 14911 ft | 312 kts | 220° |
| 2026-04-19 22:23 | 30.77985 | -8.93608 | 14592 ft | 310 kts | 220° |
| 2026-04-19 22:23 | 30.76335 | -8.95217 | 14202 ft | 309 kts | 220° |
| 2026-04-19 22:23 | 30.74690 | -8.96827 | 13856 ft | 309 kts | 220° |
| 2026-04-19 22:24 | 30.73050 | -8.98432 | 13505 ft | 307 kts | 220° |
| 2026-04-19 22:24 | 30.71414 | -9.00030 | 13150 ft | 306 kts | 220° |
| 2026-04-19 22:24 | 30.69791 | -9.01613 | 12798 ft | 304 kts | 220° |
| 2026-04-19 22:24 | 30.68174 | -9.03188 | 12435 ft | 303 kts | 220° |
| 2026-04-19 22:25 | 30.66560 | -9.04761 | 12065 ft | 302 kts | 220° |
| 2026-04-19 22:25 | 30.64956 | -9.06324 | 11707 ft | 300 kts | 220° |
| 2026-04-19 22:25 | 30.63362 | -9.07878 | 11312 ft | 299 kts | 219° |
| 2026-04-19 22:25 | 30.61788 | -9.09418 | 10913 ft | 300 kts | 220° |
| 2026-04-19 22:26 | 30.60200 | -9.10975 | 10602 ft | 297 kts | 220° |
| 2026-04-19 22:26 | 30.58632 | -9.12513 | 10222 ft | 292 kts | 220° |
| 2026-04-19 22:26 | 30.57083 | -9.14036 | 9571 ft | 291 kts | 219° |
| 2026-04-19 22:26 | 30.55546 | -9.15545 | 8911 ft | 289 kts | 220° |
| 2026-04-19 22:27 | 30.53987 | -9.16995 | 8254 ft | 285 kts | 211° |
| 2026-04-19 22:27 | 30.52156 | -9.17774 | 7629 ft | 280 kts | 186° |
| 2026-04-19 22:27 | 30.50237 | -9.17612 | 6988 ft | 276 kts | 162° |
| 2026-04-19 22:27 | 30.48567 | -9.16570 | 6345 ft | 273 kts | 141° |
| 2026-04-19 22:28 | 30.47079 | -9.15199 | 5640 ft | 273 kts | 143° |
| 2026-04-19 22:28 | 30.45519 | -9.13959 | 5109 ft | 269 kts | 148° |
| 2026-04-19 22:28 | 30.43918 | -9.12877 | 4967 ft | 271 kts | 152° |
| 2026-04-19 22:28 | 30.42236 | -9.11926 | 5138 ft | 271 kts | 157° |
| 2026-04-19 22:29 | 30.40473 | -9.11120 | 4927 ft | 272 kts | 161° |
| 2026-04-19 22:29 | 30.38656 | -9.10472 | 4940 ft | 274 kts | 165° |
| 2026-04-19 22:29 | 30.36798 | -9.09980 | 4941 ft | 273 kts | 169° |
| 2026-04-19 22:29 | 30.34922 | -9.09654 | 4939 ft | 273 kts | 174° |
| 2026-04-19 22:30 | 30.33061 | -9.09855 | 4936 ft | 268 kts | 202° |
| 2026-04-19 22:30 | 30.31678 | -9.11145 | 4806 ft | 255 kts | 237° |
| 2026-04-19 22:30 | 30.31228 | -9.13085 | 4481 ft | 252 kts | 275° |
| 2026-04-19 22:30 | 30.31556 | -9.15059 | 4158 ft | 248 kts | 278° |
| 2026-04-19 22:31 | 30.31685 | -9.17041 | 3854 ft | 247 kts | 271° |
| 2026-04-19 22:31 | 30.31716 | -9.19018 | 3542 ft | 245 kts | 271° |
| 2026-04-19 22:31 | 30.31757 | -9.20991 | 3232 ft | 245 kts | 271° |
| 2026-04-19 22:31 | 30.31807 | -9.22953 | 2920 ft | 244 kts | 271° |
| 2026-04-19 22:32 | 30.31858 | -9.24908 | 2601 ft | 241 kts | 271° |
| 2026-04-19 22:32 | 30.31906 | -9.26791 | 2292 ft | 227 kts | 271° |
| 2026-04-19 22:32 | 30.31951 | -9.28566 | 2011 ft | 215 kts | 271° |
| 2026-04-19 22:32 | 30.31992 | -9.30223 | 1769 ft | 195 kts | 271° |
| 2026-04-19 22:33 | 30.32029 | -9.31694 | 1558 ft | 172 kts | 273° |
| 2026-04-19 22:33 | 30.32061 | -9.33012 | 1305 ft | 156 kts | 272° |
| 2026-04-19 22:33 | 30.32090 | -9.34228 | 1127 ft | 147 kts | 272° |
| 2026-04-19 22:33 | 30.32119 | -9.35389 | 956 ft | 142 kts | 272° |
| 2026-04-19 22:34 | 30.32147 | -9.36525 | 787 ft | 141 kts | 273° |
| 2026-04-19 22:34 | 30.32174 | -9.37645 | 619 ft | 139 kts | 272° |
| 2026-04-19 22:34 | 30.32199 | -9.38758 | 437 ft | 138 kts | 272° |
| 2026-04-19 22:34 | 30.32233 | -9.39843 | 248 ft | 134 kts | 272° |
| 2026-04-19 22:35 | 30.32259 | -9.40825 | 232 ft | 114 kts | 272° |
| 2026-04-19 22:35 | 30.32289 | -9.41927 | 512 ft | 151 kts | 271° |
| 2026-04-19 22:35 | 30.32313 | -9.43149 | 1220 ft | 153 kts | 271° |
| 2026-04-19 22:35 | 30.32332 | -9.44371 | 1799 ft | 154 kts | 270° |
| 2026-04-19 22:36 | 30.32344 | -9.45717 | 2002 ft | 180 kts | 263° |
| 2026-04-19 22:36 | 30.31788 | -9.47083 | 2303 ft | 200 kts | 223° |
| 2026-04-19 22:36 | 30.30517 | -9.47845 | 2611 ft | 216 kts | 187° |
| 2026-04-19 22:36 | 30.28987 | -9.47997 | 2923 ft | 222 kts | 179° |
| 2026-04-19 22:37 | 30.27455 | -9.48041 | 2963 ft | 220 kts | 179° |
| 2026-04-19 22:37 | 30.25928 | -9.48067 | 2970 ft | 219 kts | 178° |
| 2026-04-19 22:37 | 30.24455 | -9.47757 | 2972 ft | 216 kts | 150° |
| 2026-04-19 22:37 | 30.23401 | -9.46572 | 2973 ft | 213 kts | 115° |
| 2026-04-19 22:38 | 30.23078 | -9.44907 | 2969 ft | 216 kts | 92° |
| 2026-04-19 22:38 | 30.23062 | -9.43182 | 2971 ft | 219 kts | 89° |
| 2026-04-19 22:38 | 30.23089 | -9.41423 | 2976 ft | 219 kts | 89° |
| 2026-04-19 22:38 | 30.23127 | -9.39660 | 2975 ft | 218 kts | 89° |
| 2026-04-19 22:39 | 30.23169 | -9.37904 | 2976 ft | 218 kts | 89° |
| 2026-04-19 22:39 | 30.23210 | -9.36146 | 2976 ft | 219 kts | 89° |
| 2026-04-19 22:39 | 30.23252 | -9.34388 | 2977 ft | 219 kts | 89° |
| 2026-04-19 22:39 | 30.23294 | -9.32632 | 2978 ft | 218 kts | 89° |
| 2026-04-19 22:40 | 30.23336 | -9.30876 | 2978 ft | 219 kts | 89° |
| 2026-04-19 22:40 | 30.23379 | -9.29115 | 2978 ft | 219 kts | 89° |
| 2026-04-19 22:40 | 30.23418 | -9.27355 | 2974 ft | 219 kts | 89° |
| 2026-04-19 22:40 | 30.23461 | -9.25594 | 2974 ft | 218 kts | 89° |
| 2026-04-19 22:41 | 30.23504 | -9.23843 | 2994 ft | 218 kts | 89° |
| 2026-04-19 22:41 | 30.23609 | -9.22097 | 2992 ft | 219 kts | 75° |
| 2026-04-19 22:41 | 30.24376 | -9.20607 | 2991 ft | 219 kts | 41° |
| 2026-04-19 22:41 | 30.25648 | -9.19617 | 2993 ft | 222 kts | 30° |
| 2026-04-19 22:42 | 30.26999 | -9.18754 | 2993 ft | 222 kts | 28° |
| 2026-04-19 22:42 | 30.28415 | -9.18059 | 2989 ft | 223 kts | 9° |
| 2026-04-19 22:42 | 30.29934 | -9.18276 | 2992 ft | 224 kts | 335° |
| 2026-04-19 22:42 | 30.31206 | -9.19270 | 3002 ft | 220 kts | 321° |
| 2026-04-19 22:43 | 30.32173 | -9.20551 | 2997 ft | 207 kts | 289° |
| 2026-04-19 22:43 | 30.32182 | -9.22160 | 2962 ft | 203 kts | 250° |
| 2026-04-19 22:43 | 30.31777 | -9.23722 | 2754 ft | 204 kts | 266° |
| 2026-04-19 22:43 | 30.31850 | -9.25354 | 2540 ft | 201 kts | 272° |
| 2026-04-19 22:44 | 30.31907 | -9.26955 | 2273 ft | 196 kts | 270° |
| 2026-04-19 22:44 | 30.31947 | -9.28483 | 2024 ft | 183 kts | 270° |
| 2026-04-19 22:44 | 30.31982 | -9.29870 | 1813 ft | 163 kts | 271° |
| 2026-04-19 22:44 | 30.32014 | -9.31131 | 1599 ft | 152 kts | 270° |
| 2026-04-19 22:45 | 30.32044 | -9.32331 | 1407 ft | 147 kts | 270° |
| 2026-04-19 22:45 | 30.32073 | -9.33504 | 1236 ft | 145 kts | 271° |
| 2026-04-19 22:45 | 30.32101 | -9.34657 | 1063 ft | 142 kts | 271° |
| 2026-04-19 22:45 | 30.32129 | -9.35786 | 899 ft | 139 kts | 272° |
| 2026-04-19 22:46 | 30.32156 | -9.36902 | 734 ft | 138 kts | 272° |
| 2026-04-19 22:46 | 30.32183 | -9.38001 | 552 ft | 137 kts | 272° |
| 2026-04-19 22:46 | 30.32217 | -9.39096 | 371 ft | 135 kts | 272° |
| 2026-04-19 22:46 | 30.32240 | -9.40174 | 236 ft | 124 kts | 272° |
| 2026-04-19 22:47 | 30.32260 | -9.41004 | 229 ft | 82 kts | 271° |
| 2026-04-19 22:47 | 30.32272 | -9.41427 | 229 ft | 15 kts | 271° |
| 2026-04-19 22:47 | 30.32304 | -9.41521 | 228 ft | 13 kts | 332° |
| 2026-04-19 22:47 | 30.32396 | -9.41528 | 229 ft | 14 kts | 2° |
| 2026-04-19 22:48 | 30.32494 | -9.41524 | 229 ft | 15 kts | 1° |
| 2026-04-19 22:48 | 30.32601 | -9.41521 | 229 ft | 16 kts | 2° |
| 2026-04-19 22:48 | 30.32716 | -9.41516 | 229 ft | 15 kts | 1° |
| 2026-04-19 22:48 | 30.32802 | -9.41490 | 230 ft | 12 kts | 43° |
| 2026-04-19 22:49 | 30.32818 | -9.41401 | 229 ft | 11 kts | 91° |
| 2026-04-19 22:49 | 30.32816 | -9.41316 | 229 ft | 10 kts | 91° |
| 2026-04-19 22:49 | 30.32814 | -9.41237 | 229 ft | 9 kts | 92° |
| 2026-04-19 22:49 | 30.32812 | -9.41164 | 229 ft | 9 kts | 91° |
| 2026-04-19 22:50 | 30.32811 | -9.41098 | 229 ft | 8 kts | 91° |
| 2026-04-19 22:50 | 30.32827 | -9.41050 | 230 ft | 6 kts | 14° |
| 2026-04-19 22:50 | 30.32868 | -9.41047 | 229 ft | 3 kts | 2° |
| 2026-04-19 22:50 | 30.32875 | -9.41047 | 229 ft | 0 kts | 1° |